Aérodrome :
LOGIN :

S'inscrire | Disclaimer

   EN    FR    IT 

 










Légende :    VFR   VFR Marginal   IFR   IFR Intensif   IFR Très Intensif
Visi : 
Plafond : 
>= 8 km
>= 3000ft
5 à 8 km
1000 à 3000 ft
1500m à 5 km
500 à 1000 ft
800 à 1500m
200 à 500 ft
< 800m
< 200 ft
Symboles :   Orages  Brouillard  Fortes neiges  Fortes précipitations  Vent > 20 kt
SIGMETs :   Divers  Orages  Givrage  Turbulence  Onde Orograph.  Cendres Volcan.







- Altitude de l'aérodrome : 291 ft
- Code IATA : ORY
- Voir les cartes d'approche


LFPO - Paris-Orly

DERNIER METAR :
  • 140400Z 24013KT CAVOK 05/01 Q1002 TEMPO 25015G30KT

METARs EXPIRÉS :
  • 140330Z 25014KT CAVOK 05/01 Q1002 TEMPO 25015G30KT
  • 140300Z 26015KT CAVOK 06/01 Q1002 TEMPO 25015G30KT
  • 140230Z 27017KT 9999 FEW026 06/01 Q1002 TEMPO 25020G30KT SCT025TCU
  • 140200Z 28018KT 9999 FEW026 06/01 Q1001 TEMPO 25020G35KT SCT025TCU
  • 140130Z 28018G30KT 9999 FEW026 06/02 Q1000 TEMPO 25020G35KT SCT025TCU

TAF TAF LFPO
Valide du 14 à 00h jusqu'au 15 à 06h UTC


132300Z 1400/1506 25015G25KT 9999 BKN025
TEMPO 1400/1403 25025G47KT 3000 SHRA BKN012 BKN020CB
TEMPO 1405/1419 25020G32KT 3000 SHRA BKN012 BKN020TCU
PROB40
TEMPO 1412/1418 TSRA BKN008 BKN020CB
TEMPO 1502/1506 3000 SHRA BKN012 BKN020TCU
ATIS : +33 1 49 75 65 80
Pas de NOTAMs connus pour ce terrain.
2 SIGMETs publiés pour la FIR Paris (LFFF) :
 
Turbulence forte
LFFF SIGMET 3 VALID 140350/140700 LFPW
LFFF PARIS FIR/UIR SEV TURB OBS WI N4945 W00015 - N5000 W00015 - N5115 E00200 - N5100 E00230 - N5015 E00130 - N4945 W00015 SFC/FL050 STNR WKN=
Turbulence forte
LFFF SIGMET 2 VALID 140300/140400 LFPW
LFFF PARIS FIR/UIR SEV TURB FCST WI N4945 E00515 - N4930 E00600 - N4900 E00445 - N4830 E00530 - N4745 E00445 - N4815 E00430 - N4945 E00515 SFC/FL070 MOV E 45KT NC=



MET'MAP, la Météo Aéronautique d'un coup d'oeil ! - Copyright ORBIFLY Décembre 2007 - Disclaimer

ORBIFLY MET'MAP TEAM :

Programmation & Développement : Alexandra Zaïnal
Conception & Développement : Baudouin d'Aumeries
Co-Programmation & Développement : Marc-Olivier Méhu
Soutien technique & logistique : Manuel Goepfert

Contact : metmap@orbifly.com




SOURCES & CREDITS :

   NOAA